sensor_id;sensor_type;location;lat;lon;timestamp;temperature;humidity
11965;DHT22;6042;41.326;19.826;2023-04-01T00:01:19;12.00;99.90
11965;DHT22;6042;41.326;19.826;2023-04-01T00:03:47;12.10;99.90
11965;DHT22;6042;41.326;19.826;2023-04-01T00:06:18;12.20;99.90
11965;DHT22;6042;41.326;19.826;2023-04-01T00:08:48;12.20;99.90
11965;DHT22;6042;41.326;19.826;2023-04-01T00:11:17;12.20;99.90
11965;DHT22;6042;41.326;19.826;2023-04-01T00:13:46;12.20;99.90
11965;DHT22;6042;41.326;19.826;2023-04-01T00:16:15;12.20;99.90
11965;DHT22;6042;41.326;19.826;2023-04-01T00:18:49;12.30;99.90
11965;DHT22;6042;41.326;19.826;2023-04-01T00:21:19;12.30;99.90
11965;DHT22;6042;41.326;19.826;2023-04-01T00:23:51;12.30;99.90
11965;DHT22;6042;41.326;19.826;2023-04-01T00:26:20;12.40;99.90
11965;DHT22;6042;41.326;19.826;2023-04-01T00:28:49;12.40;99.90
11965;DHT22;6042;41.326;19.826;2023-04-01T00:31:19;12.40;99.90
11965;DHT22;6042;41.326;19.826;2023-04-01T00:33:48;12.40;99.90
11965;DHT22;6042;41.326;19.826;2023-04-01T00:36:18;12.50;99.90
11965;DHT22;6042;41.326;19.826;2023-04-01T00:38:47;12.50;99.90
11965;DHT22;6042;41.326;19.826;2023-04-01T00:41:18;12.50;99.90
11965;DHT22;6042;41.326;19.826;2023-04-01T00:43:50;12.30;99.90
11965;DHT22;6042;41.326;19.826;2023-04-01T00:46:19;12.30;99.90
11965;DHT22;6042;41.326;19.826;2023-04-01T00:48:51;12.40;99.90
11965;DHT22;6042;41.326;19.826;2023-04-01T00:51:23;12.40;99.90
11965;DHT22;6042;41.326;19.826;2023-04-01T00:53:54;12.50;99.90
11965;DHT22;6042;41.326;19.826;2023-04-01T00:56:30;12.60;99.90
11965;DHT22;6042;41.326;19.826;2023-04-01T00:59:04;12.60;99.90
11965;DHT22;6042;41.326;19.826;2023-04-01T01:01:37;12.60;99.90
11965;DHT22;6042;41.326;19.826;2023-04-01T01:04:05;12.60;99.90
11965;DHT22;6042;41.326;19.826;2023-04-01T01:06:42;12.60;99.90
11965;DHT22;6042;41.326;19.826;2023-04-01T01:09:25;12.60;99.90
11965;DHT22;6042;41.326;19.826;2023-04-01T01:12:03;12.70;99.90
11965;DHT22;6042;41.326;19.826;2023-04-01T01:14:44;12.70;99.90
11965;DHT22;6042;41.326;19.826;2023-04-01T01:17:22;12.70;99.90
11965;DHT22;6042;41.326;19.826;2023-04-01T01:20:17;12.60;99.90
11965;DHT22;6042;41.326;19.826;2023-04-01T01:23:08;12.50;99.90
11965;DHT22;6042;41.326;19.826;2023-04-01T01:25:48;12.60;99.90
11965;DHT22;6042;41.326;19.826;2023-04-01T01:28:35;12.60;99.90
11965;DHT22;6042;41.326;19.826;2023-04-01T01:31:11;12.60;99.90
11965;DHT22;6042;41.326;19.826;2023-04-01T01:33:50;12.60;99.90
11965;DHT22;6042;41.326;19.826;2023-04-01T01:36:25;12.60;99.90
11965;DHT22;6042;41.326;19.826;2023-04-01T01:38:56;12.70;99.90
11965;DHT22;6042;41.326;19.826;2023-04-01T01:41:25;12.70;99.90
11965;DHT22;6042;41.326;19.826;2023-04-01T01:43:56;12.80;99.90
11965;DHT22;6042;41.326;19.826;2023-04-01T01:46:28;12.80;99.90
11965;DHT22;6042;41.326;19.826;2023-04-01T01:49:00;12.80;99.90
11965;DHT22;6042;41.326;19.826;2023-04-01T01:51:32;12.80;99.90
11965;DHT22;6042;41.326;19.826;2023-04-01T01:54:02;12.70;99.90
11965;DHT22;6042;41.326;19.826;2023-04-01T01:56:32;12.60;99.90
11965;DHT22;6042;41.326;19.826;2023-04-01T01:59:05;12.60;99.90
11965;DHT22;6042;41.326;19.826;2023-04-01T02:01:39;12.60;99.90
11965;DHT22;6042;41.326;19.826;2023-04-01T02:04:13;12.70;99.90
11965;DHT22;6042;41.326;19.826;2023-04-01T02:06:49;12.70;99.90
11965;DHT22;6042;41.326;19.826;2023-04-01T02:09:21;12.80;99.90
11965;DHT22;6042;41.326;19.826;2023-04-01T02:11:52;12.70;99.90
11965;DHT22;6042;41.326;19.826;2023-04-01T02:14:22;12.70;99.90
11965;DHT22;6042;41.326;19.826;2023-04-01T02:16:56;12.70;99.90
11965;DHT22;6042;41.326;19.826;2023-04-01T02:19:29;12.60;99.90
11965;DHT22;6042;41.326;19.826;2023-04-01T02:22:04;12.60;99.90
11965;DHT22;6042;41.326;19.826;2023-04-01T02:24:35;12.60;99.90
11965;DHT22;6042;41.326;19.826;2023-04-01T02:27:04;12.60;99.90
11965;DHT22;6042;41.326;19.826;2023-04-01T02:29:33;12.60;99.90
11965;DHT22;6042;41.326;19.826;2023-04-01T02:32:06;12.60;99.90
11965;DHT22;6042;41.326;19.826;2023-04-01T02:34:36;12.50;99.90
11965;DHT22;6042;41.326;19.826;2023-04-01T02:37:06;12.60;99.90
11965;DHT22;6042;41.326;19.826;2023-04-01T02:39:37;12.50;99.90
11965;DHT22;6042;41.326;19.826;2023-04-01T02:42:05;12.50;99.90
11965;DHT22;6042;41.326;19.826;2023-04-01T02:44:34;12.50;99.90
11965;DHT22;6042;41.326;19.826;2023-04-01T02:47:03;12.50;99.90
11965;DHT22;6042;41.326;19.826;2023-04-01T02:49:33;12.50;99.90
11965;DHT22;6042;41.326;19.826;2023-04-01T02:52:01;12.40;99.90
11965;DHT22;6042;41.326;19.826;2023-04-01T02:54:31;12.40;99.90
11965;DHT22;6042;41.326;19.826;2023-04-01T02:57:00;12.40;99.90
11965;DHT22;6042;41.326;19.826;2023-04-01T02:59:28;12.40;99.90
11965;DHT22;6042;41.326;19.826;2023-04-01T03:01:57;12.40;99.90
11965;DHT22;6042;41.326;19.826;2023-04-01T03:04:25;12.40;99.90
11965;DHT22;6042;41.326;19.826;2023-04-01T03:06:54;12.60;99.90
11965;DHT22;6042;41.326;19.826;2023-04-01T03:09:22;12.60;99.90
11965;DHT22;6042;41.326;19.826;2023-04-01T03:11:53;12.50;99.90
11965;DHT22;6042;41.326;19.826;2023-04-01T03:14:22;12.50;99.90
11965;DHT22;6042;41.326;19.826;2023-04-01T03:16:50;12.50;99.90
11965;DHT22;6042;41.326;19.826;2023-04-01T03:19:19;12.60;99.90
11965;DHT22;6042;41.326;19.826;2023-04-01T03:21:48;12.60;99.90
11965;DHT22;6042;41.326;19.826;2023-04-01T03:24:16;12.50;99.90
11965;DHT22;6042;41.326;19.826;2023-04-01T03:26:46;12.50;99.90
11965;DHT22;6042;41.326;19.826;2023-04-01T03:29:17;12.50;99.90
11965;DHT22;6042;41.326;19.826;2023-04-01T03:31:45;12.60;99.90
11965;DHT22;6042;41.326;19.826;2023-04-01T03:34:14;12.50;99.90
11965;DHT22;6042;41.326;19.826;2023-04-01T03:36:43;12.50;99.90
11965;DHT22;6042;41.326;19.826;2023-04-01T03:39:11;12.30;99.90
11965;DHT22;6042;41.326;19.826;2023-04-01T03:41:41;12.20;99.90
11965;DHT22;6042;41.326;19.826;2023-04-01T03:44:10;12.30;99.90
11965;DHT22;6042;41.326;19.826;2023-04-01T03:46:40;12.40;99.90
11965;DHT22;6042;41.326;19.826;2023-04-01T03:49:10;12.30;99.90
11965;DHT22;6042;41.326;19.826;2023-04-01T03:51:40;12.20;99.90
11965;DHT22;6042;41.326;19.826;2023-04-01T03:54:09;12.10;99.90
11965;DHT22;6042;41.326;19.826;2023-04-01T03:56:38;12.20;99.90
11965;DHT22;6042;41.326;19.826;2023-04-01T03:59:07;12.30;99.90
11965;DHT22;6042;41.326;19.826;2023-04-01T04:01:37;12.40;99.90
11965;DHT22;6042;41.326;19.826;2023-04-01T04:04:10;12.40;99.90
11965;DHT22;6042;41.326;19.826;2023-04-01T04:06:39;12.50;99.90
11965;DHT22;6042;41.326;19.826;2023-04-01T04:09:07;12.40;99.90
11965;DHT22;6042;41.326;19.826;2023-04-01T04:11:36;12.40;99.90
11965;DHT22;6042;41.326;19.826;2023-04-01T04:14:05;12.40;99.90
11965;DHT22;6042;41.326;19.826;2023-04-01T04:16:35;12.40;99.90
11965;DHT22;6042;41.326;19.826;2023-04-01T04:19:06;12.30;99.90
11965;DHT22;6042;41.326;19.826;2023-04-01T04:21:35;12.30;99.90
11965;DHT22;6042;41.326;19.826;2023-04-01T04:24:04;12.40;99.90
11965;DHT22;6042;41.326;19.826;2023-04-01T04:26:53;12.50;99.90
11965;DHT22;6042;41.326;19.826;2023-04-01T04:29:24;12.50;99.90
11965;DHT22;6042;41.326;19.826;2023-04-01T04:31:52;12.30;99.90
11965;DHT22;6042;41.326;19.826;2023-04-01T04:34:23;12.30;99.90
11965;DHT22;6042;41.326;19.826;2023-04-01T04:36:52;12.30;99.90
11965;DHT22;6042;41.326;19.826;2023-04-01T04:39:24;12.40;99.90
11965;DHT22;6042;41.326;19.826;2023-04-01T04:41:52;12.60;99.90
11965;DHT22;6042;41.326;19.826;2023-04-01T04:44:21;12.70;99.90
11965;DHT22;6042;41.326;19.826;2023-04-01T04:46:50;12.70;99.90
11965;DHT22;6042;41.326;19.826;2023-04-01T04:49:18;12.80;99.90
11965;DHT22;6042;41.326;19.826;2023-04-01T04:51:49;12.80;99.90
11965;DHT22;6042;41.326;19.826;2023-04-01T04:54:21;12.70;99.90
11965;DHT22;6042;41.326;19.826;2023-04-01T04:56:53;12.60;99.90
11965;DHT22;6042;41.326;19.826;2023-04-01T04:59:24;12.50;99.90
11965;DHT22;6042;41.326;19.826;2023-04-01T05:02:12;12.50;99.90
11965;DHT22;6042;41.326;19.826;2023-04-01T05:04:41;12.60;99.90
11965;DHT22;6042;41.326;19.826;2023-04-01T05:07:12;12.70;99.90
11965;DHT22;6042;41.326;19.826;2023-04-01T05:09:40;12.80;99.90
11965;DHT22;6042;41.326;19.826;2023-04-01T05:12:09;12.70;99.90
11965;DHT22;6042;41.326;19.826;2023-04-01T05:15:00;12.90;99.90
11965;DHT22;6042;41.326;19.826;2023-04-01T05:17:31;13.00;99.90
11965;DHT22;6042;41.326;19.826;2023-04-01T05:20:00;13.00;99.90
11965;DHT22;6042;41.326;19.826;2023-04-01T05:22:31;13.10;99.90
11965;DHT22;6042;41.326;19.826;2023-04-01T05:24:59;13.10;99.90
11965;DHT22;6042;41.326;19.826;2023-04-01T05:27:28;13.20;99.90
11965;DHT22;6042;41.326;19.826;2023-04-01T05:29:57;13.40;99.90
11965;DHT22;6042;41.326;19.826;2023-04-01T05:32:44;13.50;99.90
11965;DHT22;6042;41.326;19.826;2023-04-01T05:35:14;13.50;99.90
11965;DHT22;6042;41.326;19.826;2023-04-01T05:37:44;13.50;99.90
11965;DHT22;6042;41.326;19.826;2023-04-01T05:40:14;13.60;99.90
11965;DHT22;6042;41.326;19.826;2023-04-01T05:42:42;13.70;99.90
11965;DHT22;6042;41.326;19.826;2023-04-01T05:45:11;13.80;99.90
11965;DHT22;6042;41.326;19.826;2023-04-01T05:48:05;13.80;99.90
11965;DHT22;6042;41.326;19.826;2023-04-01T05:50:40;13.80;99.90
11965;DHT22;6042;41.326;19.826;2023-04-01T05:53:12;13.80;99.90
11965;DHT22;6042;41.326;19.826;2023-04-01T05:55:43;14.00;99.90
11965;DHT22;6042;41.326;19.826;2023-04-01T05:58:13;14.10;99.90
11965;DHT22;6042;41.326;19.826;2023-04-01T06:00:45;14.20;99.90
11965;DHT22;6042;41.326;19.826;2023-04-01T06:03:16;14.40;99.90
11965;DHT22;6042;41.326;19.826;2023-04-01T06:05:46;14.40;99.90
11965;DHT22;6042;41.326;19.826;2023-04-01T06:08:16;14.40;99.90
11965;DHT22;6042;41.326;19.826;2023-04-01T06:10:58;14.30;99.90
11965;DHT22;6042;41.326;19.826;2023-04-01T06:13:42;14.20;99.90
11965;DHT22;6042;41.326;19.826;2023-04-01T06:16:22;14.30;99.90
11965;DHT22;6042;41.326;19.826;2023-04-01T06:19:16;14.40;99.90
11965;DHT22;6042;41.326;19.826;2023-04-01T06:25:32;14.30;99.90
11965;DHT22;6042;41.326;19.826;2023-04-01T06:31:24;14.60;99.90
11965;DHT22;6042;41.326;19.826;2023-04-01T06:34:11;14.60;99.90
11965;DHT22;6042;41.326;19.826;2023-04-01T06:36:59;14.70;99.90
11965;DHT22;6042;41.326;19.826;2023-04-01T06:39:55;14.70;99.90
11965;DHT22;6042;41.326;19.826;2023-04-01T06:46:04;14.70;99.90
11965;DHT22;6042;41.326;19.826;2023-04-01T06:49:12;14.80;99.90
11965;DHT22;6042;41.326;19.826;2023-04-01T06:51:50;14.80;99.90
11965;DHT22;6042;41.326;19.826;2023-04-01T06:54:43;14.90;99.90
11965;DHT22;6042;41.326;19.826;2023-04-01T06:57:35;14.90;99.90
11965;DHT22;6042;41.326;19.826;2023-04-01T07:00:15;15.00;99.90
11965;DHT22;6042;41.326;19.826;2023-04-01T07:02:49;15.10;99.90
11965;DHT22;6042;41.326;19.826;2023-04-01T07:05:23;15.20;99.90
11965;DHT22;6042;41.326;19.826;2023-04-01T07:07:54;15.20;99.90
11965;DHT22;6042;41.326;19.826;2023-04-01T07:10:33;15.30;99.90
11965;DHT22;6042;41.326;19.826;2023-04-01T07:13:27;15.30;99.90
11965;DHT22;6042;41.326;19.826;2023-04-01T07:16:08;15.30;99.90
11965;DHT22;6042;41.326;19.826;2023-04-01T07:18:44;15.30;99.90
11965;DHT22;6042;41.326;19.826;2023-04-01T07:21:30;15.30;99.90
11965;DHT22;6042;41.326;19.826;2023-04-01T07:24:15;15.30;99.90
11965;DHT22;6042;41.326;19.826;2023-04-01T07:26:56;15.20;99.90
11965;DHT22;6042;41.326;19.826;2023-04-01T07:29:30;15.20;99.90
11965;DHT22;6042;41.326;19.826;2023-04-01T07:32:14;15.20;99.90
11965;DHT22;6042;41.326;19.826;2023-04-01T07:34:53;15.10;99.90
11965;DHT22;6042;41.326;19.826;2023-04-01T07:37:30;15.20;99.90
11965;DHT22;6042;41.326;19.826;2023-04-01T07:40:10;15.30;99.90
11965;DHT22;6042;41.326;19.826;2023-04-01T07:42:57;15.40;99.90
11965;DHT22;6042;41.326;19.826;2023-04-01T07:45:34;15.40;99.90
11965;DHT22;6042;41.326;19.826;2023-04-01T07:48:15;15.50;99.90
11965;DHT22;6042;41.326;19.826;2023-04-01T07:50:55;15.60;99.90
11965;DHT22;6042;41.326;19.826;2023-04-01T07:53:33;15.70;99.90
11965;DHT22;6042;41.326;19.826;2023-04-01T07:56:06;15.80;99.90
11965;DHT22;6042;41.326;19.826;2023-04-01T07:58:50;15.90;99.90
11965;DHT22;6042;41.326;19.826;2023-04-01T08:01:49;15.90;99.90
11965;DHT22;6042;41.326;19.826;2023-04-01T08:04:31;16.00;99.90
11965;DHT22;6042;41.326;19.826;2023-04-01T08:07:08;16.10;99.90
11965;DHT22;6042;41.326;19.826;2023-04-01T08:09:53;16.20;99.90
11965;DHT22;6042;41.326;19.826;2023-04-01T08:12:51;16.20;99.90
11965;DHT22;6042;41.326;19.826;2023-04-01T08:16:09;16.20;99.90
11965;DHT22;6042;41.326;19.826;2023-04-01T08:18:54;16.30;99.90
11965;DHT22;6042;41.326;19.826;2023-04-01T08:21:28;16.40;99.90
11965;DHT22;6042;41.326;19.826;2023-04-01T08:23:58;16.50;99.90
11965;DHT22;6042;41.326;19.826;2023-04-01T08:26:32;16.50;99.90
11965;DHT22;6042;41.326;19.826;2023-04-01T08:29:09;16.60;99.90
11965;DHT22;6042;41.326;19.826;2023-04-01T08:31:43;16.50;99.90
11965;DHT22;6042;41.326;19.826;2023-04-01T08:34:16;16.50;99.90
11965;DHT22;6042;41.326;19.826;2023-04-01T08:36:51;16.60;99.90
11965;DHT22;6042;41.326;19.826;2023-04-01T08:39:29;16.60;99.90
11965;DHT22;6042;41.326;19.826;2023-04-01T08:42:21;16.70;99.90
11965;DHT22;6042;41.326;19.826;2023-04-01T08:45:24;16.80;99.90
11965;DHT22;6042;41.326;19.826;2023-04-01T08:48:19;16.60;99.90
11965;DHT22;6042;41.326;19.826;2023-04-01T08:54:21;16.60;99.90
11965;DHT22;6042;41.326;19.826;2023-04-01T08:57:06;16.50;99.90
11965;DHT22;6042;41.326;19.826;2023-04-01T09:00:00;16.10;99.90
11965;DHT22;6042;41.326;19.826;2023-04-01T09:06:21;15.10;99.90
11965;DHT22;6042;41.326;19.826;2023-04-01T09:09:12;15.20;99.90
11965;DHT22;6042;41.326;19.826;2023-04-01T09:12:07;15.40;99.90
11965;DHT22;6042;41.326;19.826;2023-04-01T09:15:01;15.50;99.90
11965;DHT22;6042;41.326;19.826;2023-04-01T09:21:06;15.70;99.90
11965;DHT22;6042;41.326;19.826;2023-04-01T09:24:13;15.80;99.90
11965;DHT22;6042;41.326;19.826;2023-04-01T09:27:08;15.90;99.90
11965;DHT22;6042;41.326;19.826;2023-04-01T09:30:13;15.90;99.90
11965;DHT22;6042;41.326;19.826;2023-04-01T09:36:03;16.00;99.90
11965;DHT22;6042;41.326;19.826;2023-04-01T09:38:49;16.00;99.90
11965;DHT22;6042;41.326;19.826;2023-04-01T09:41:29;16.10;99.90
11965;DHT22;6042;41.326;19.826;2023-04-01T09:44:22;16.20;99.90
11965;DHT22;6042;41.326;19.826;2023-04-01T09:47:28;16.40;99.90
11965;DHT22;6042;41.326;19.826;2023-04-01T09:50:27;16.50;99.90
11965;DHT22;6042;41.326;19.826;2023-04-01T09:53:06;16.60;99.90
11965;DHT22;6042;41.326;19.826;2023-04-01T09:56:08;16.60;99.90
11965;DHT22;6042;41.326;19.826;2023-04-01T10:06:06;17.20;99.90
11965;DHT22;6042;41.326;19.826;2023-04-01T10:08:55;17.10;99.90
11965;DHT22;6042;41.326;19.826;2023-04-01T10:15:09;16.90;99.90
11965;DHT22;6042;41.326;19.826;2023-04-01T10:21:29;16.80;99.90
11965;DHT22;6042;41.326;19.826;2023-04-01T10:24:38;16.90;99.90
11965;DHT22;6042;41.326;19.826;2023-04-01T10:31:10;17.30;99.90
11965;DHT22;6042;41.326;19.826;2023-04-01T10:34:04;17.30;99.90
11965;DHT22;6042;41.326;19.826;2023-04-01T10:36:51;17.40;99.90
11965;DHT22;6042;41.326;19.826;2023-04-01T10:40:02;17.50;99.90
11965;DHT22;6042;41.326;19.826;2023-04-01T10:49:41;17.60;99.90
11965;DHT22;6042;41.326;19.826;2023-04-01T10:59:10;18.00;99.90
11965;DHT22;6042;41.326;19.826;2023-04-01T11:15:23;18.30;99.90
11965;DHT22;6042;41.326;19.826;2023-04-01T11:24:41;17.70;99.90
11965;DHT22;6042;41.326;19.826;2023-04-01T11:27:59;17.20;99.90
11965;DHT22;6042;41.326;19.826;2023-04-01T11:31:00;17.20;99.90
11965;DHT22;6042;41.326;19.826;2023-04-01T11:33:36;17.00;99.90
11965;DHT22;6042;41.326;19.826;2023-04-01T11:36:18;17.30;99.90
11965;DHT22;6042;41.326;19.826;2023-04-01T11:39:00;17.80;99.90
11965;DHT22;6042;41.326;19.826;2023-04-01T11:41:55;18.10;99.90
11965;DHT22;6042;41.326;19.826;2023-04-01T11:44:53;18.30;99.90
11965;DHT22;6042;41.326;19.826;2023-04-01T11:47:55;18.40;99.90
11965;DHT22;6042;41.326;19.826;2023-04-01T11:50:38;18.30;99.90
11965;DHT22;6042;41.326;19.826;2023-04-01T11:53:19;18.10;99.90
11965;DHT22;6042;41.326;19.826;2023-04-01T11:55:59;18.10;99.90
11965;DHT22;6042;41.326;19.826;2023-04-01T11:58:58;18.00;99.90
11965;DHT22;6042;41.326;19.826;2023-04-01T12:01:47;17.90;99.90
11965;DHT22;6042;41.326;19.826;2023-04-01T12:04:49;17.80;99.90
11965;DHT22;6042;41.326;19.826;2023-04-01T12:07:40;17.90;99.90
11965;DHT22;6042;41.326;19.826;2023-04-01T12:10:18;18.10;99.90
11965;DHT22;6042;41.326;19.826;2023-04-01T12:12:54;18.10;99.90
11965;DHT22;6042;41.326;19.826;2023-04-01T12:15:35;18.20;99.90
11965;DHT22;6042;41.326;19.826;2023-04-01T12:18:14;18.20;99.90
11965;DHT22;6042;41.326;19.826;2023-04-01T12:20:49;18.40;99.90
11965;DHT22;6042;41.326;19.826;2023-04-01T12:23:37;18.60;99.90
11965;DHT22;6042;41.326;19.826;2023-04-01T12:26:23;18.50;99.90
11965;DHT22;6042;41.326;19.826;2023-04-01T12:29:07;18.30;99.90
11965;DHT22;6042;41.326;19.826;2023-04-01T12:31:47;18.40;99.90
11965;DHT22;6042;41.326;19.826;2023-04-01T12:35:00;18.20;99.90
11965;DHT22;6042;41.326;19.826;2023-04-01T12:37:39;18.00;99.90
11965;DHT22;6042;41.326;19.826;2023-04-01T12:40:31;17.90;99.90
11965;DHT22;6042;41.326;19.826;2023-04-01T12:43:28;17.80;99.90
11965;DHT22;6042;41.326;19.826;2023-04-01T12:46:07;17.60;99.90
11965;DHT22;6042;41.326;19.826;2023-04-01T12:49:03;17.50;99.90
11965;DHT22;6042;41.326;19.826;2023-04-01T12:51:53;17.60;99.90
11965;DHT22;6042;41.326;19.826;2023-04-01T12:54:58;17.90;99.90
11965;DHT22;6042;41.326;19.826;2023-04-01T12:57:53;18.10;99.90
11965;DHT22;6042;41.326;19.826;2023-04-01T13:00:39;18.20;99.90
11965;DHT22;6042;41.326;19.826;2023-04-01T13:03:35;18.50;99.90
11965;DHT22;6042;41.326;19.826;2023-04-01T13:06:29;18.70;99.90
11965;DHT22;6042;41.326;19.826;2023-04-01T13:09:10;19.00;99.90
11965;DHT22;6042;41.326;19.826;2023-04-01T13:11:56;19.40;99.90
11965;DHT22;6042;41.326;19.826;2023-04-01T13:17:30;19.60;97.10
11965;DHT22;6042;41.326;19.826;2023-04-01T13:20:07;19.20;95.00
11965;DHT22;6042;41.326;19.826;2023-04-01T13:22:51;19.10;95.40
11965;DHT22;6042;41.326;19.826;2023-04-01T13:25:26;19.30;96.70
11965;DHT22;6042;41.326;19.826;2023-04-01T13:28:03;19.30;96.80
11965;DHT22;6042;41.326;19.826;2023-04-01T13:30:39;19.30;96.80
11965;DHT22;6042;41.326;19.826;2023-04-01T13:33:19;19.00;97.30
11965;DHT22;6042;41.326;19.826;2023-04-01T13:35:56;18.80;97.90
11965;DHT22;6042;41.326;19.826;2023-04-01T13:38:48;18.50;98.60
11965;DHT22;6042;41.326;19.826;2023-04-01T13:41:33;18.70;98.90
11965;DHT22;6042;41.326;19.826;2023-04-01T13:44:11;18.60;99.50
11965;DHT22;6042;41.326;19.826;2023-04-01T13:49:57;21.90;95.40
11965;DHT22;6042;41.326;19.826;2023-04-01T13:52:51;22.60;93.60
11965;DHT22;6042;41.326;19.826;2023-04-01T13:55:53;24.10;91.80
11965;DHT22;6042;41.326;19.826;2023-04-01T13:58:57;24.60;90.90
11965;DHT22;6042;41.326;19.826;2023-04-01T14:01:35;25.20;88.60
11965;DHT22;6042;41.326;19.826;2023-04-01T14:04:24;25.00;86.90
11965;DHT22;6042;41.326;19.826;2023-04-01T14:07:08;24.30;88.30
11965;DHT22;6042;41.326;19.826;2023-04-01T14:10:02;24.70;87.50
11965;DHT22;6042;41.326;19.826;2023-04-01T14:12:39;24.30;83.80
11965;DHT22;6042;41.326;19.826;2023-04-01T14:15:36;23.40;83.70
11965;DHT22;6042;41.326;19.826;2023-04-01T14:18:27;21.70;86.90
11965;DHT22;6042;41.326;19.826;2023-04-01T14:21:12;20.70;89.00
11965;DHT22;6042;41.326;19.826;2023-04-01T14:23:55;22.10;87.20
11965;DHT22;6042;41.326;19.826;2023-04-01T14:29:34;22.60;81.40
11965;DHT22;6042;41.326;19.826;2023-04-01T14:32:12;21.20;83.70
11965;DHT22;6042;41.326;19.826;2023-04-01T14:34:55;20.70;85.70
11965;DHT22;6042;41.326;19.826;2023-04-01T14:37:48;20.70;86.50
11965;DHT22;6042;41.326;19.826;2023-04-01T14:40:28;21.90;84.60
11965;DHT22;6042;41.326;19.826;2023-04-01T14:43:20;22.90;82.00
11965;DHT22;6042;41.326;19.826;2023-04-01T14:46:08;22.50;82.00
11965;DHT22;6042;41.326;19.826;2023-04-01T14:48:53;22.10;82.80
11965;DHT22;6042;41.326;19.826;2023-04-01T14:51:28;21.60;84.00
11965;DHT22;6042;41.326;19.826;2023-04-01T14:54:02;21.40;85.00
11965;DHT22;6042;41.326;19.826;2023-04-01T14:56:36;21.40;84.40
11965;DHT22;6042;41.326;19.826;2023-04-01T14:59:10;20.70;86.00
11965;DHT22;6042;41.326;19.826;2023-04-01T15:01:47;20.40;87.60
11965;DHT22;6042;41.326;19.826;2023-04-01T15:07:42;19.60;90.10
11965;DHT22;6042;41.326;19.826;2023-04-01T15:13:13;19.50;88.50
11965;DHT22;6042;41.326;19.826;2023-04-01T15:15:56;19.30;89.60
11965;DHT22;6042;41.326;19.826;2023-04-01T15:18:38;19.20;90.20
11965;DHT22;6042;41.326;19.826;2023-04-01T15:24:14;19.00;90.50
11965;DHT22;6042;41.326;19.826;2023-04-01T15:27:04;18.70;90.90
11965;DHT22;6042;41.326;19.826;2023-04-01T15:29:55;18.50;91.10
11965;DHT22;6042;41.326;19.826;2023-04-01T15:32:38;18.60;91.80
11965;DHT22;6042;41.326;19.826;2023-04-01T15:35:21;18.60;91.80
11965;DHT22;6042;41.326;19.826;2023-04-01T15:37:58;18.50;92.10
11965;DHT22;6042;41.326;19.826;2023-04-01T15:40:36;18.40;92.40
11965;DHT22;6042;41.326;19.826;2023-04-01T15:43:17;18.50;92.30
11965;DHT22;6042;41.326;19.826;2023-04-01T15:45:58;18.50;92.30
11965;DHT22;6042;41.326;19.826;2023-04-01T15:48:40;18.60;92.10
11965;DHT22;6042;41.326;19.826;2023-04-01T15:51:20;18.60;92.10
11965;DHT22;6042;41.326;19.826;2023-04-01T15:54:12;18.50;92.20
11965;DHT22;6042;41.326;19.826;2023-04-01T15:57:15;18.50;92.40
11965;DHT22;6042;41.326;19.826;2023-04-01T16:00:02;18.40;92.60
11965;DHT22;6042;41.326;19.826;2023-04-01T16:02:46;18.30;92.40
11965;DHT22;6042;41.326;19.826;2023-04-01T16:05:27;18.20;92.50
11965;DHT22;6042;41.326;19.826;2023-04-01T16:08:19;18.10;92.50
11965;DHT22;6042;41.326;19.826;2023-04-01T16:11:03;18.10;92.50
11965;DHT22;6042;41.326;19.826;2023-04-01T16:13:46;18.20;92.40
11965;DHT22;6042;41.326;19.826;2023-04-01T16:16:26;18.20;92.50
11965;DHT22;6042;41.326;19.826;2023-04-01T16:19:20;18.10;92.70
11965;DHT22;6042;41.326;19.826;2023-04-01T16:21:54;18.10;92.90
11965;DHT22;6042;41.326;19.826;2023-04-01T16:24:33;17.80;93.10
11965;DHT22;6042;41.326;19.826;2023-04-01T16:27:09;17.80;93.20
11965;DHT22;6042;41.326;19.826;2023-04-01T16:29:45;17.90;93.40
11965;DHT22;6042;41.326;19.826;2023-04-01T16:32:26;17.90;93.20
11965;DHT22;6042;41.326;19.826;2023-04-01T16:35:12;17.90;93.20
11965;DHT22;6042;41.326;19.826;2023-04-01T16:37:47;17.70;93.60
11965;DHT22;6042;41.326;19.826;2023-04-01T16:40:25;17.70;93.80
11965;DHT22;6042;41.326;19.826;2023-04-01T16:43:06;17.70;93.70
11965;DHT22;6042;41.326;19.826;2023-04-01T16:45:43;17.60;94.10
11965;DHT22;6042;41.326;19.826;2023-04-01T16:48:18;17.60;94.30
11965;DHT22;6042;41.326;19.826;2023-04-01T16:50:55;17.50;94.30
11965;DHT22;6042;41.326;19.826;2023-04-01T16:53:36;17.30;94.60
11965;DHT22;6042;41.326;19.826;2023-04-01T16:56:13;17.10;95.50
11965;DHT22;6042;41.326;19.826;2023-04-01T16:58:57;17.00;96.30
11965;DHT22;6042;41.326;19.826;2023-04-01T17:01:43;16.80;97.00
11965;DHT22;6042;41.326;19.826;2023-04-01T17:04:19;16.60;97.50
11965;DHT22;6042;41.326;19.826;2023-04-01T17:06:53;16.50;98.00
11965;DHT22;6042;41.326;19.826;2023-04-01T17:09:36;16.40;98.40
11965;DHT22;6042;41.326;19.826;2023-04-01T17:12:15;16.20;98.90
11965;DHT22;6042;41.326;19.826;2023-04-01T17:14:56;16.10;99.00
11965;DHT22;6042;41.326;19.826;2023-04-01T17:17:34;16.00;99.20
11965;DHT22;6042;41.326;19.826;2023-04-01T17:20:32;16.00;99.50
11965;DHT22;6042;41.326;19.826;2023-04-01T17:23:18;15.90;99.60
11965;DHT22;6042;41.326;19.826;2023-04-01T17:26:20;15.90;99.80
11965;DHT22;6042;41.326;19.826;2023-04-01T17:28:58;15.90;99.90
11965;DHT22;6042;41.326;19.826;2023-04-01T17:31:46;15.90;99.90
11965;DHT22;6042;41.326;19.826;2023-04-01T17:34:44;15.80;99.90
11965;DHT22;6042;41.326;19.826;2023-04-01T17:37:28;15.80;99.90
11965;DHT22;6042;41.326;19.826;2023-04-01T17:40:21;15.70;99.90
11965;DHT22;6042;41.326;19.826;2023-04-01T17:42:59;15.70;99.90
11965;DHT22;6042;41.326;19.826;2023-04-01T17:45:33;15.60;99.90
11965;DHT22;6042;41.326;19.826;2023-04-01T17:48:18;15.70;99.90
11965;DHT22;6042;41.326;19.826;2023-04-01T17:51:01;15.50;99.90
11965;DHT22;6042;41.326;19.826;2023-04-01T17:53:39;15.30;99.90
11965;DHT22;6042;41.326;19.826;2023-04-01T17:56:21;15.10;99.90
11965;DHT22;6042;41.326;19.826;2023-04-01T17:58:59;15.10;99.90
11965;DHT22;6042;41.326;19.826;2023-04-01T18:01:48;15.10;99.90
11965;DHT22;6042;41.326;19.826;2023-04-01T18:04:43;15.10;99.90
11965;DHT22;6042;41.326;19.826;2023-04-01T18:07:32;14.90;99.90
11965;DHT22;6042;41.326;19.826;2023-04-01T18:13:16;14.40;99.90
11965;DHT22;6042;41.326;19.826;2023-04-01T18:15:54;14.20;99.90
11965;DHT22;6042;41.326;19.826;2023-04-01T18:18:42;14.10;99.90
11965;DHT22;6042;41.326;19.826;2023-04-01T18:21:23;14.10;99.90
11965;DHT22;6042;41.326;19.826;2023-04-01T18:23:58;14.20;99.90
11965;DHT22;6042;41.326;19.826;2023-04-01T18:26:31;14.20;99.90